createdAt,value
2022-12-10T00:01:06.057Z,10.50
2022-12-10T00:02:08.804Z,11.23
2022-12-10T00:03:10.621Z,13.77
2022-12-10T00:04:15.433Z,12.40
2022-12-10T00:08:43.395Z,10.93
2022-12-10T00:09:46.153Z,10.80
2022-12-10T00:10:47.892Z,12.93
2022-12-10T00:11:51.151Z,17.67
2022-12-10T00:12:52.926Z,19.63
2022-12-10T00:13:56.067Z,15.43
2022-12-10T00:14:57.819Z,16.75
2022-12-10T00:16:01.449Z,13.77
2022-12-10T00:17:05.446Z,14.05
2022-12-10T00:18:11.310Z,12.38
2022-12-10T00:19:14.389Z,13.68
2022-12-10T00:20:17.354Z,11.98
2022-12-10T00:21:24.973Z,13.07
2022-12-10T00:22:27.706Z,15.43
2022-12-10T00:23:29.422Z,12.40
2022-12-10T00:24:32.229Z,13.50
2022-12-10T00:25:33.997Z,12.90
2022-12-10T00:26:38.612Z,10.20
2022-12-10T00:27:40.438Z,12.30
2022-12-10T00:28:43.680Z,12.68
2022-12-10T00:29:46.424Z,14.43
2022-12-10T00:30:48.203Z,15.20
2022-12-10T00:31:50.998Z,16.08
2022-12-10T00:32:53.153Z,25.63
2022-12-10T00:33:56.509Z,37.25
2022-12-10T00:34:59.628Z,100.78
2022-12-10T00:36:06.740Z,155.98
2022-12-10T00:37:08.565Z,154.93
2022-12-10T00:38:11.329Z,116.53
2022-12-10T00:39:16.016Z,61.97
2022-12-10T00:40:17.821Z,61.10
2022-12-10T00:41:20.940Z,65.75
2022-12-10T00:42:22.707Z,64.82
2022-12-10T00:43:25.495Z,44.50
2022-12-10T00:44:27.296Z,33.30
2022-12-10T00:45:30.053Z,34.20
2022-12-10T00:46:31.968Z,31.83
2022-12-10T00:47:35.799Z,17.65
2022-12-10T00:48:37.722Z,12.75
2022-12-10T00:49:40.486Z,15.02
2022-12-10T00:50:43.574Z,16.90
2022-12-10T00:51:46.308Z,17.08
2022-12-10T00:52:48.086Z,15.68
2022-12-10T00:53:55.756Z,15.77
2022-12-10T00:54:58.821Z,15.70
2022-12-10T00:56:02.153Z,17.63
2022-12-10T00:57:03.962Z,18.23
2022-12-10T00:58:06.725Z,17.90
2022-12-10T00:59:08.480Z,17.70
2022-12-10T01:00:14.003Z,17.23
2022-12-10T01:01:17.827Z,19.10
2022-12-10T01:02:22.004Z,18.40
2022-12-10T01:03:26.049Z,15.75
2022-12-10T01:04:28.827Z,18.85
2022-12-10T01:05:30.575Z,15.43
2022-12-10T01:06:36.358Z,17.75
2022-12-10T01:07:38.109Z,18.38
2022-12-10T01:08:41.138Z,13.82
2022-12-10T01:09:43.902Z,13.20
2022-12-10T01:10:46.857Z,16.83
2022-12-10T01:11:50.794Z,17.73
2022-12-10T01:12:52.558Z,18.52
2022-12-10T01:13:55.363Z,16.52
2022-12-10T01:14:57.171Z,14.88
2022-12-10T01:16:02.615Z,19.88
2022-12-10T01:17:06.517Z,14.90
2022-12-10T01:18:09.333Z,13.60
2022-12-10T01:19:11.551Z,14.13
2022-12-10T01:20:14.434Z,15.25
2022-12-10T01:21:19.181Z,17.42
2022-12-10T01:22:23.308Z,18.92
2022-12-10T01:23:25.110Z,16.40
2022-12-10T01:24:30.657Z,18.23
2022-12-10T01:25:32.790Z,20.75
2022-12-10T01:26:37.312Z,19.70
2022-12-10T01:27:39.135Z,20.27
2022-12-10T01:28:42.725Z,18.77
2022-12-10T01:29:44.633Z,19.33
2022-12-10T01:30:47.475Z,18.88
2022-12-10T01:31:51.668Z,18.23
2022-12-10T01:32:54.446Z,15.65
2022-12-10T01:33:57.747Z,18.42
2022-12-10T01:35:01.636Z,22.35
2022-12-10T01:36:05.235Z,17.52
2022-12-10T01:37:08.073Z,17.55
2022-12-10T01:38:11.156Z,16.70
2022-12-10T01:39:15.858Z,17.73
2022-12-10T01:40:17.778Z,20.67
2022-12-10T01:41:23.273Z,21.50
2022-12-10T01:42:25.053Z,24.33
2022-12-10T01:43:50.750Z,30.08
2022-12-10T01:45:11.747Z,19.17
2022-12-10T01:46:14.569Z,15.23
2022-12-10T01:47:16.465Z,19.25
2022-12-10T01:48:19.497Z,18.73
2022-12-10T01:49:23.171Z,15.77
2022-12-10T01:50:25.928Z,17.63
2022-12-10T01:51:30.933Z,19.05
2022-12-10T01:52:33.827Z,18.80
2022-12-10T01:53:37.087Z,15.40
2022-12-10T01:54:41.697Z,19.75
2022-12-10T01:55:48.956Z,16.95
2022-12-10T01:56:55.417Z,19.85
2022-12-10T01:57:57.705Z,18.13
2022-12-10T01:59:00.446Z,15.55
2022-12-10T02:00:07.822Z,18.92
2022-12-10T02:01:34.701Z,18.65
2022-12-10T02:02:42.014Z,14.85
2022-12-10T02:03:54.742Z,16.65
2022-12-10T02:05:06.437Z,16.55
2022-12-10T02:06:18.745Z,18.95
2022-12-10T02:07:24.822Z,18.33
2022-12-10T02:08:35.333Z,17.85
2022-12-10T02:09:44.396Z,16.33
2022-12-10T02:11:02.143Z,16.25
2022-12-10T02:12:11.257Z,15.73
2022-12-10T02:13:18.697Z,14.98
2022-12-10T02:14:24.568Z,18.85
2022-12-10T02:15:29.883Z,18.92
2022-12-10T02:16:35.795Z,15.90
2022-12-10T02:17:40.066Z,18.05
2022-12-10T02:18:44.882Z,18.55
2022-12-10T02:20:00.449Z,16.48
2022-12-10T02:21:08.154Z,17.48
2022-12-10T02:22:11.992Z,16.88
2022-12-10T02:23:17.365Z,19.25
2022-12-10T02:24:23.328Z,16.95
2022-12-10T02:25:33.528Z,17.10
2022-12-10T02:26:42.272Z,18.60
2022-12-10T02:27:51.311Z,20.63
2022-12-10T02:29:08.279Z,18.10
2022-12-10T02:30:11.924Z,15.20
2022-12-10T02:31:16.575Z,17.75
2022-12-10T02:32:23.864Z,16.15
2022-12-10T02:33:29.430Z,17.92
2022-12-10T02:34:34.671Z,20.38
2022-12-10T02:35:41.759Z,18.00
2022-12-10T02:36:45.723Z,18.98
2022-12-10T02:37:52.733Z,16.33
2022-12-10T02:38:56.847Z,17.58
2022-12-10T02:40:04.109Z,18.50
2022-12-10T02:41:19.586Z,17.00
2022-12-10T02:42:23.681Z,17.73
2022-12-10T02:43:26.305Z,16.27
2022-12-10T02:44:32.920Z,17.80
2022-12-10T02:45:35.626Z,16.90
2022-12-10T02:46:39.201Z,13.27
2022-12-10T02:47:42.489Z,16.02
2022-12-10T02:48:46.281Z,15.35
2022-12-10T02:49:51.508Z,14.02
2022-12-10T02:50:54.295Z,17.38
2022-12-10T02:51:56.028Z,14.50
2022-12-10T02:52:58.829Z,17.48
2022-12-10T02:54:01.685Z,17.90
2022-12-10T02:55:07.103Z,17.45
2022-12-10T02:56:15.238Z,19.45
2022-12-10T02:57:31.078Z,15.05
2022-12-10T02:58:39.732Z,17.05
2022-12-10T02:59:54.818Z,17.35
2022-12-10T03:01:03.262Z,18.88
2022-12-10T03:02:10.104Z,17.52
2022-12-10T03:03:21.634Z,19.92
2022-12-10T03:04:28.241Z,19.38
2022-12-10T03:05:36.265Z,18.95
2022-12-10T03:06:43.137Z,19.52
2022-12-10T03:07:48.005Z,18.02
2022-12-10T03:08:53.132Z,20.05
2022-12-10T03:10:00.641Z,17.75
2022-12-10T03:11:09.591Z,20.77
2022-12-10T03:12:16.792Z,19.10
2022-12-10T03:13:22.729Z,19.77
2022-12-10T03:14:27.211Z,21.45
2022-12-10T03:15:35.365Z,21.15
2022-12-10T03:16:40.475Z,18.63
2022-12-10T03:17:44.568Z,20.30
2022-12-10T03:18:51.371Z,20.85
2022-12-10T03:19:56.010Z,17.55
2022-12-10T03:20:59.491Z,20.95
2022-12-10T03:22:03.937Z,17.02
2022-12-10T03:23:10.056Z,20.42
2022-12-10T03:24:13.285Z,17.92
2022-12-10T03:25:17.629Z,18.02
2022-12-10T03:26:21.160Z,17.23
2022-12-10T03:27:25.091Z,16.75
2022-12-10T03:28:28.223Z,17.30
2022-12-10T03:29:35.161Z,18.33
2022-12-10T03:30:41.177Z,17.98
2022-12-10T03:31:43.203Z,18.30
2022-12-10T03:32:46.720Z,16.88
2022-12-10T03:33:49.137Z,17.88
2022-12-10T03:34:53.677Z,19.50
2022-12-10T03:35:56.289Z,17.80
2022-12-10T03:37:00.138Z,17.67
2022-12-10T03:38:02.326Z,21.83
2022-12-10T03:39:06.440Z,21.05
2022-12-10T03:40:10.419Z,22.40
2022-12-10T03:41:13.714Z,21.45
2022-12-10T03:42:16.056Z,20.15
2022-12-10T03:43:18.819Z,20.20
2022-12-10T03:44:29.079Z,29.02
2022-12-10T03:45:31.830Z,17.88
2022-12-10T03:46:34.997Z,22.13
2022-12-10T03:47:37.761Z,20.90
2022-12-10T03:48:39.594Z,23.90
2022-12-10T03:49:42.515Z,21.58
2022-12-10T03:50:44.377Z,23.67
2022-12-10T03:51:47.156Z,21.10
2022-12-10T03:52:48.958Z,23.40
2022-12-10T03:53:51.842Z,21.70
2022-12-10T03:54:53.715Z,22.88
2022-12-10T03:55:56.467Z,24.67
2022-12-10T03:56:58.247Z,25.38
2022-12-10T03:58:01.030Z,20.35
2022-12-10T03:59:02.809Z,22.70
2022-12-10T04:00:07.656Z,20.48
2022-12-10T04:01:18.373Z,18.05
2022-12-10T04:02:22.576Z,16.48
2022-12-10T04:03:24.341Z,20.10
2022-12-10T04:04:27.160Z,16.60
2022-12-10T04:05:30.454Z,20.27
2022-12-10T04:06:33.508Z,21.15
2022-12-10T04:07:35.307Z,21.83
2022-12-10T04:08:38.087Z,23.02
2022-12-10T04:09:39.846Z,24.08
2022-12-10T04:10:42.597Z,21.67
2022-12-10T04:11:44.865Z,22.58
2022-12-10T04:13:08.041Z,25.60
2022-12-10T04:14:28.685Z,20.98
2022-12-10T04:15:48.738Z,23.08
2022-12-10T04:16:50.854Z,22.52
2022-12-10T04:17:55.052Z,21.33
2022-12-10T04:19:01.175Z,20.63
2022-12-10T04:20:04.829Z,19.98
2022-12-10T04:21:24.987Z,21.58
2022-12-10T04:22:44.903Z,21.73
2022-12-10T04:24:19.741Z,22.60
2022-12-10T04:25:40.044Z,20.55
2022-12-10T04:26:55.009Z,23.83
2022-12-10T04:27:57.766Z,22.90
2022-12-10T04:28:59.628Z,29.80
2022-12-10T04:30:02.830Z,29.63
2022-12-10T04:31:04.640Z,33.03
2022-12-10T04:32:07.817Z,37.88
2022-12-10T04:33:10.949Z,35.38
2022-12-10T04:34:13.704Z,42.40
2022-12-10T04:35:15.525Z,33.08
2022-12-10T04:36:18.296Z,35.78
2022-12-10T04:37:20.769Z,31.17
2022-12-10T04:38:23.505Z,34.13
2022-12-10T04:39:25.828Z,39.72
2022-12-10T04:40:28.695Z,31.75
2022-12-10T04:41:30.481Z,44.28
2022-12-10T04:42:33.243Z,29.45
2022-12-10T04:43:35.027Z,24.60
2022-12-10T04:44:38.047Z,30.55
2022-12-10T04:45:39.769Z,29.02
2022-12-10T04:46:42.554Z,28.98
2022-12-10T04:47:45.321Z,28.50
2022-12-10T04:48:48.542Z,28.35
2022-12-10T04:49:51.269Z,26.77
2022-12-10T04:50:52.994Z,28.33
2022-12-10T04:51:56.257Z,26.13
2022-12-10T04:52:58.045Z,31.85
2022-12-10T04:54:00.882Z,29.08
2022-12-10T04:55:02.664Z,25.27
2022-12-10T04:56:06.897Z,24.48
2022-12-10T04:57:08.872Z,30.80
2022-12-10T04:58:11.617Z,28.02
2022-12-10T04:59:13.524Z,26.90
2022-12-10T05:00:16.638Z,31.75
2022-12-10T05:01:19.692Z,32.65
2022-12-10T05:02:22.515Z,32.03
2022-12-10T05:03:24.256Z,29.42
2022-12-10T05:04:28.464Z,25.48
2022-12-10T05:05:30.293Z,35.25
2022-12-10T05:06:33.058Z,26.55
2022-12-10T05:07:34.965Z,27.95
2022-12-10T05:08:38.828Z,28.40
2022-12-10T05:09:40.634Z,29.10
2022-12-10T05:10:43.393Z,31.23
2022-12-10T05:11:45.425Z,29.45
2022-12-10T05:12:48.166Z,25.73
2022-12-10T05:13:50.004Z,26.23
2022-12-10T05:14:52.756Z,28.52
2022-12-10T05:15:54.645Z,24.83
2022-12-10T05:16:57.445Z,25.65
2022-12-10T05:17:59.174Z,26.08
2022-12-10T05:19:02.142Z,28.15
2022-12-10T05:20:06.899Z,25.48
2022-12-10T05:21:14.344Z,28.05
2022-12-10T05:22:34.726Z,27.80
2022-12-10T05:23:37.668Z,24.02
2022-12-10T05:24:39.446Z,25.27
2022-12-10T05:25:53.830Z,25.83
2022-12-10T05:26:55.818Z,22.48
2022-12-10T05:27:58.573Z,27.65
2022-12-10T05:29:00.327Z,27.88
2022-12-10T05:30:03.097Z,24.10
2022-12-10T05:31:05.729Z,31.60
2022-12-10T05:32:08.480Z,23.67
2022-12-10T05:33:10.247Z,26.60
2022-12-10T05:34:13.660Z,24.52
2022-12-10T05:35:16.806Z,23.05
2022-12-10T05:36:21.292Z,26.15
2022-12-10T05:37:23.060Z,25.92
2022-12-10T05:38:26.636Z,24.33
2022-12-10T05:39:28.435Z,26.58
2022-12-10T05:40:31.183Z,41.35
2022-12-10T05:41:36.558Z,26.63
2022-12-10T05:42:39.276Z,22.83
2022-12-10T05:43:41.283Z,25.27
2022-12-10T05:44:44.023Z,23.08
2022-12-10T05:45:46.078Z,25.20
2022-12-10T05:46:48.937Z,25.05
2022-12-10T05:47:52.186Z,25.30
2022-12-10T05:48:57.363Z,27.55
2022-12-10T05:49:59.141Z,26.63
2022-12-10T05:51:06.407Z,25.55
2022-12-10T05:52:09.572Z,28.63
2022-12-10T05:53:14.637Z,23.45
2022-12-10T05:54:16.390Z,23.90
2022-12-10T05:55:19.143Z,27.70
2022-12-10T05:56:22.601Z,23.48
2022-12-10T05:57:25.502Z,24.58
2022-12-10T05:58:28.401Z,25.83
2022-12-10T05:59:31.152Z,23.10
2022-12-10T06:00:32.920Z,26.25
2022-12-10T06:01:36.665Z,24.50
2022-12-10T06:02:38.492Z,30.45
2022-12-10T06:03:41.366Z,28.33
2022-12-10T06:04:43.242Z,27.42
2022-12-10T06:05:47.112Z,30.05
2022-12-10T06:06:50.865Z,28.80
2022-12-10T06:07:54.004Z,29.73
2022-12-10T06:08:56.509Z,30.52
2022-12-10T06:09:59.401Z,29.33
2022-12-10T06:11:01.962Z,35.45
2022-12-10T06:12:05.040Z,31.83
2022-12-10T06:13:06.826Z,34.92
2022-12-10T06:14:10.792Z,32.22
2022-12-10T06:15:12.575Z,32.42
2022-12-10T06:16:16.121Z,27.75
2022-12-10T06:17:20.447Z,29.50
2022-12-10T06:18:22.228Z,28.25
2022-12-10T06:19:25.394Z,30.35
2022-12-10T06:20:27.280Z,27.70
2022-12-10T06:21:30.180Z,27.40
2022-12-10T06:22:34.510Z,26.08
2022-12-10T06:23:37.492Z,26.30
2022-12-10T06:24:39.264Z,27.38
2022-12-10T06:25:42.269Z,26.13
2022-12-10T06:26:44.049Z,26.73
2022-12-10T06:27:48.475Z,24.83
2022-12-10T06:28:51.045Z,23.73
2022-12-10T06:29:53.805Z,25.23
2022-12-10T06:30:55.661Z,24.08
2022-12-10T06:31:58.416Z,23.40
2022-12-10T06:33:00.195Z,24.73
2022-12-10T06:34:03.084Z,22.15
2022-12-10T06:35:05.761Z,24.00
2022-12-10T06:36:10.924Z,25.00
2022-12-10T06:37:13.763Z,24.40
2022-12-10T06:38:16.886Z,20.90
2022-12-10T06:39:19.633Z,26.10
2022-12-10T06:40:24.024Z,25.63
2022-12-10T06:41:26.800Z,24.10
2022-12-10T06:42:29.592Z,20.65
2022-12-10T06:43:31.331Z,24.77
2022-12-10T06:44:34.223Z,23.23
2022-12-10T06:45:39.254Z,24.52
2022-12-10T06:46:44.185Z,22.50
2022-12-10T06:47:45.949Z,21.73
2022-12-10T06:48:49.114Z,25.90
2022-12-10T06:49:51.271Z,27.23
2022-12-10T06:50:54.311Z,44.05
2022-12-10T06:51:56.087Z,135.43
2022-12-10T06:52:58.841Z,72.43
2022-12-10T06:54:02.030Z,93.75
2022-12-10T06:55:05.196Z,72.88
2022-12-10T06:56:08.330Z,135.50
2022-12-10T06:57:11.129Z,201.68
2022-12-10T06:58:12.897Z,68.88
2022-12-10T06:59:15.663Z,70.97
2022-12-10T07:00:21.767Z,45.13
2022-12-10T07:01:27.501Z,31.50
2022-12-10T07:02:29.474Z,30.88
2022-12-10T07:03:32.427Z,36.80
2022-12-10T07:04:34.189Z,49.33
2022-12-10T07:05:36.916Z,41.45
2022-12-10T07:06:38.765Z,76.88
2022-12-10T07:07:41.842Z,69.63
2022-12-10T07:08:43.648Z,47.35
2022-12-10T07:09:47.744Z,42.70
2022-12-10T07:10:49.561Z,51.03
2022-12-10T07:11:53.251Z,69.60
2022-12-10T07:12:55.019Z,66.50
2022-12-10T07:13:58.215Z,65.75
2022-12-10T07:15:00.023Z,49.33
2022-12-10T07:16:02.872Z,44.42
2022-12-10T07:17:06.214Z,51.40
2022-12-10T07:18:09.014Z,57.15
2022-12-10T07:19:12.789Z,56.55
2022-12-10T07:20:15.677Z,41.55
2022-12-10T07:21:19.019Z,43.17
2022-12-10T07:22:21.788Z,50.67
2022-12-10T07:23:23.589Z,41.20
2022-12-10T07:24:26.750Z,42.70
2022-12-10T07:25:33.899Z,43.63
2022-12-10T07:26:37.125Z,46.00
2022-12-10T07:27:39.832Z,62.80
2022-12-10T07:28:51.839Z,50.08
2022-12-10T07:29:55.901Z,52.83
2022-12-10T07:31:01.848Z,56.47
2022-12-10T07:32:04.878Z,53.40
2022-12-10T07:33:06.694Z,45.58
2022-12-10T07:34:09.446Z,34.53
2022-12-10T07:35:11.205Z,38.22
2022-12-10T07:36:15.185Z,44.05
2022-12-10T07:37:17.940Z,55.22
2022-12-10T07:38:19.712Z,41.58
2022-12-10T07:39:22.497Z,46.05
2022-12-10T07:40:24.568Z,48.38
2022-12-10T07:41:28.956Z,45.53
2022-12-10T07:42:30.771Z,34.15
2022-12-10T07:43:35.157Z,36.00
2022-12-10T07:44:36.907Z,32.33
2022-12-10T07:45:39.676Z,30.92
2022-12-10T07:46:42.467Z,33.65
2022-12-10T07:47:45.291Z,26.67
2022-12-10T07:48:48.000Z,24.33
2022-12-10T07:49:50.797Z,26.67
2022-12-10T07:50:58.577Z,28.45
2022-12-10T07:52:01.598Z,24.08
2022-12-10T07:53:03.710Z,22.05
2022-12-10T07:54:06.996Z,22.73
2022-12-10T07:55:10.293Z,22.60
2022-12-10T07:56:13.525Z,24.63
2022-12-10T07:57:16.706Z,23.88
2022-12-10T07:58:19.523Z,25.38
2022-12-10T07:59:21.332Z,30.98
2022-12-10T08:00:24.199Z,34.92
2022-12-10T08:01:26.775Z,34.97
2022-12-10T08:02:29.504Z,40.13
2022-12-10T08:03:31.292Z,36.70
2022-12-10T08:04:34.055Z,35.83
2022-12-10T08:05:35.831Z,33.65
2022-12-10T08:06:38.621Z,29.80
2022-12-10T08:07:40.420Z,32.75
2022-12-10T08:08:44.512Z,30.15
2022-12-10T08:09:46.283Z,29.45
2022-12-10T08:10:49.431Z,21.75
2022-12-10T08:11:52.174Z,23.05
2022-12-10T08:12:56.288Z,25.65
2022-12-10T08:13:59.485Z,27.15
2022-12-10T08:15:03.421Z,25.95
2022-12-10T08:16:06.698Z,25.63
2022-12-10T08:17:09.465Z,25.90
2022-12-10T08:18:11.240Z,37.28
2022-12-10T08:19:19.424Z,66.35
2022-12-10T08:20:24.049Z,78.60
2022-12-10T08:21:28.514Z,133.68
2022-12-10T08:22:30.316Z,179.93
2022-12-10T08:23:33.097Z,181.25
2022-12-10T08:24:35.915Z,77.72
2022-12-10T08:25:40.642Z,37.28
2022-12-10T08:26:43.533Z,26.00
2022-12-10T08:27:45.354Z,45.08
2022-12-10T08:28:50.804Z,41.10
2022-12-10T08:29:53.653Z,25.85
2022-12-10T08:30:55.408Z,21.38
2022-12-10T08:31:58.189Z,23.83
2022-12-10T08:32:59.963Z,23.08
2022-12-10T08:34:02.916Z,18.92
2022-12-10T08:35:05.366Z,22.52
2022-12-10T08:36:10.657Z,16.63
2022-12-10T08:37:14.683Z,17.35
2022-12-10T08:38:16.460Z,16.55
2022-12-10T08:39:19.203Z,15.23
2022-12-10T08:40:21.013Z,17.55
2022-12-10T08:41:24.235Z,16.92
2022-12-10T08:42:25.988Z,16.52
2022-12-10T08:43:28.729Z,16.33
2022-12-10T08:44:32.805Z,23.73
2022-12-10T08:45:36.271Z,23.52
2022-12-10T08:46:39.497Z,19.25
2022-12-10T08:47:41.320Z,22.20
2022-12-10T08:48:44.529Z,25.17
2022-12-10T08:49:46.292Z,35.25
2022-12-10T08:50:51.448Z,28.67
2022-12-10T08:51:54.177Z,37.03
2022-12-10T08:52:55.957Z,27.48
2022-12-10T08:53:59.085Z,20.95
2022-12-10T08:55:00.911Z,16.77
2022-12-10T08:56:04.758Z,18.05
2022-12-10T08:57:07.573Z,20.23
2022-12-10T08:58:10.247Z,17.67
2022-12-10T08:59:13.053Z,16.13
2022-12-10T09:00:16.990Z,17.25
2022-12-10T09:01:20.699Z,17.65
2022-12-10T09:02:22.625Z,18.90
2022-12-10T09:03:25.736Z,21.67
2022-12-10T09:04:28.507Z,25.35
2022-12-10T09:05:30.611Z,20.38
2022-12-10T09:06:33.499Z,16.67
2022-12-10T09:07:35.241Z,16.23
2022-12-10T09:08:38.101Z,15.57
2022-12-10T09:09:39.975Z,21.90
2022-12-10T09:10:43.038Z,25.55
2022-12-10T09:11:46.702Z,19.75
2022-12-10T09:12:48.657Z,25.95
2022-12-10T09:13:51.724Z,28.80
2022-12-10T09:14:53.609Z,29.05
2022-12-10T09:15:57.810Z,32.58
2022-12-10T09:17:00.929Z,34.55
2022-12-10T09:18:03.392Z,27.15
2022-12-10T09:19:06.512Z,29.50
2022-12-10T09:20:09.287Z,29.98
2022-12-10T09:21:14.899Z,31.75
2022-12-10T09:22:16.764Z,34.80
2022-12-10T09:23:19.583Z,24.67
2022-12-10T09:24:21.358Z,26.60
2022-12-10T09:25:24.468Z,29.10
2022-12-10T09:26:27.819Z,30.92
2022-12-10T09:27:29.595Z,60.33
2022-12-10T09:28:32.548Z,46.95
2022-12-10T09:29:34.415Z,43.08
2022-12-10T09:30:37.222Z,50.75
2022-12-10T09:31:41.644Z,52.83
2022-12-10T09:32:43.861Z,93.03
2022-12-10T09:33:47.226Z,45.75
2022-12-10T09:34:52.613Z,32.17
2022-12-10T09:35:54.400Z,32.20
2022-12-10T09:36:57.276Z,31.67
2022-12-10T09:37:59.226Z,67.15
2022-12-10T09:39:02.367Z,29.42
2022-12-10T09:40:05.094Z,21.98
2022-12-10T09:41:23.531Z,32.08
2022-12-10T09:42:40.656Z,39.83
2022-12-10T09:43:47.732Z,23.13
2022-12-10T09:44:57.210Z,28.45
2022-12-10T09:46:05.273Z,28.05
2022-12-10T09:47:10.921Z,28.50
2022-12-10T09:48:20.136Z,25.48
2022-12-10T09:49:35.580Z,27.42
2022-12-10T09:50:47.278Z,26.83
2022-12-10T09:51:50.518Z,24.83
2022-12-10T09:52:55.876Z,30.05
2022-12-10T09:53:59.443Z,23.95
2022-12-10T09:55:05.309Z,26.23
2022-12-10T09:56:11.378Z,29.38
2022-12-10T09:57:22.155Z,32.85
2022-12-10T09:58:30.356Z,38.90
2022-12-10T09:59:37.338Z,32.10
2022-12-10T10:00:41.379Z,30.40
2022-12-10T10:01:45.755Z,25.10
2022-12-10T10:02:49.818Z,27.80
2022-12-10T10:03:53.140Z,25.52
2022-12-10T10:05:13.187Z,25.38
2022-12-10T10:06:16.803Z,23.23
2022-12-10T10:07:22.440Z,26.35
2022-12-10T10:08:30.388Z,25.70
2022-12-10T10:09:33.969Z,27.02
2022-12-10T10:10:39.384Z,29.98
2022-12-10T10:11:42.172Z,27.25
2022-12-10T10:12:45.350Z,27.42
2022-12-10T10:13:53.226Z,33.80
2022-12-10T10:14:55.501Z,31.20
2022-12-10T10:16:00.290Z,29.30
2022-12-10T10:17:06.032Z,32.83
2022-12-10T10:18:17.559Z,30.48
2022-12-10T10:19:26.110Z,28.77
2022-12-10T10:20:29.121Z,34.53
2022-12-10T10:21:36.222Z,36.97
2022-12-10T10:22:38.701Z,34.13
2022-12-10T10:23:41.841Z,36.25
2022-12-10T10:24:46.271Z,35.67
2022-12-10T10:25:49.576Z,33.50
2022-12-10T10:26:53.167Z,28.67
2022-12-10T10:27:56.597Z,34.22
2022-12-10T10:29:06.917Z,35.85
2022-12-10T10:30:17.552Z,32.45
2022-12-10T10:31:22.694Z,34.45
2022-12-10T10:32:26.283Z,36.35
2022-12-10T10:33:30.394Z,34.85
2022-12-10T10:34:32.421Z,31.25
2022-12-10T10:35:44.969Z,33.75
2022-12-10T10:36:47.552Z,36.55
2022-12-10T10:37:51.425Z,33.67
2022-12-10T10:38:54.162Z,38.08
2022-12-10T10:39:58.068Z,42.08
2022-12-10T10:41:02.250Z,38.88
2022-12-10T10:42:10.251Z,44.75
2022-12-10T10:43:18.852Z,42.15
2022-12-10T10:44:21.956Z,55.10
2022-12-10T10:45:35.796Z,39.72
2022-12-10T10:46:40.612Z,44.00
2022-12-10T10:47:42.790Z,46.75
2022-12-10T10:48:47.602Z,50.47
2022-12-10T10:49:49.476Z,46.42
2022-12-10T10:50:53.819Z,43.92
2022-12-10T10:52:00.458Z,39.10
2022-12-10T10:53:03.188Z,40.72
2022-12-10T10:54:08.515Z,40.00
2022-12-10T10:55:33.394Z,37.83
2022-12-10T10:56:42.573Z,31.58
2022-12-10T10:57:44.898Z,35.70
2022-12-10T10:58:59.483Z,34.45
2022-12-10T11:00:10.009Z,36.03
2022-12-10T11:01:14.364Z,37.60
2022-12-10T11:02:21.549Z,34.70
2022-12-10T11:03:23.414Z,34.22
2022-12-10T11:04:33.532Z,39.42
2022-12-10T11:05:37.421Z,38.83
2022-12-10T11:06:42.131Z,42.72
2022-12-10T11:07:45.349Z,40.17
2022-12-10T11:08:49.690Z,41.67
2022-12-10T11:09:54.226Z,45.53
2022-12-10T11:11:03.433Z,46.08
2022-12-10T11:12:09.081Z,49.85
2022-12-10T11:13:21.760Z,49.72
2022-12-10T11:14:26.543Z,44.55
2022-12-10T11:15:35.339Z,48.67
2022-12-10T11:16:37.329Z,48.45
2022-12-10T11:17:48.526Z,48.78
2022-12-10T11:18:56.772Z,47.85
2022-12-10T11:20:03.358Z,54.10
2022-12-10T11:21:08.551Z,54.05
2022-12-10T11:22:20.434Z,61.95
2022-12-10T11:23:22.731Z,64.10
2022-12-10T11:24:28.150Z,57.42
2022-12-10T11:25:40.420Z,58.60
2022-12-10T11:26:56.560Z,62.60
2022-12-10T11:28:02.020Z,79.22
2022-12-10T11:29:13.608Z,64.80
2022-12-10T11:30:23.233Z,72.40
2022-12-10T11:31:37.900Z,73.30
2022-12-10T11:32:52.232Z,66.55
2022-12-10T11:33:59.428Z,57.10
2022-12-10T11:35:13.598Z,66.22
2022-12-10T11:36:30.768Z,74.78
2022-12-10T11:37:36.709Z,57.15
2022-12-10T11:38:47.193Z,91.50
2022-12-10T11:40:05.081Z,98.15
2022-12-10T11:41:13.414Z,78.00
2022-12-10T11:42:22.683Z,61.30
2022-12-10T11:43:40.534Z,59.03
2022-12-10T11:44:49.708Z,73.50
2022-12-10T11:46:03.649Z,69.13
2022-12-10T11:47:26.438Z,69.18
2022-12-10T11:48:41.999Z,59.58
2022-12-10T11:49:51.970Z,60.00
2022-12-10T11:51:00.229Z,50.28
2022-12-10T11:52:08.017Z,60.25
2022-12-10T11:53:21.487Z,67.13
2022-12-10T11:54:45.109Z,67.60
2022-12-10T11:55:53.472Z,72.65
2022-12-10T11:57:04.158Z,74.03
2022-12-10T11:58:21.466Z,61.42
2022-12-10T11:59:46.368Z,50.58
2022-12-10T12:01:02.957Z,52.00
2022-12-10T12:02:36.202Z,51.03
2022-12-10T12:03:51.642Z,46.25
2022-12-10T12:05:14.129Z,55.67
2022-12-10T12:06:30.263Z,47.38
2022-12-10T12:07:42.591Z,39.45
2022-12-10T12:08:53.002Z,43.63
2022-12-10T12:10:10.629Z,38.85
2022-12-10T12:11:26.203Z,47.17
2022-12-10T12:12:37.760Z,47.85
2022-12-10T12:13:45.109Z,55.80
2022-12-10T12:14:50.513Z,57.63
2022-12-10T12:15:56.844Z,55.40
2022-12-10T12:17:04.630Z,52.80
2022-12-10T12:18:17.660Z,46.55
2022-12-10T12:19:27.982Z,52.10
2022-12-10T12:20:32.969Z,45.78
2022-12-10T12:21:40.751Z,54.35
2022-12-10T12:22:46.467Z,63.10
2022-12-10T12:23:52.652Z,50.40
2022-12-10T12:24:57.781Z,51.97
2022-12-10T12:26:04.785Z,45.50
2022-12-10T12:27:13.163Z,42.78
2022-12-10T12:28:19.372Z,49.00
2022-12-10T12:29:24.909Z,43.17
2022-12-10T12:30:28.467Z,43.88
2022-12-10T12:31:35.077Z,38.47
2022-12-10T12:32:46.219Z,46.00
2022-12-10T12:33:52.760Z,44.50
2022-12-10T12:35:01.313Z,47.17
2022-12-10T12:36:08.930Z,37.35
2022-12-10T12:37:16.905Z,40.58
2022-12-10T12:38:29.499Z,36.83
2022-12-10T12:39:38.164Z,48.20
2022-12-10T12:40:44.767Z,38.10
2022-12-10T12:41:52.584Z,40.35
2022-12-10T12:42:59.380Z,44.40
2022-12-10T12:44:06.724Z,45.58
2022-12-10T12:45:12.354Z,44.10
2022-12-10T12:46:27.701Z,43.90
2022-12-10T12:47:37.448Z,40.97
2022-12-10T12:48:47.112Z,44.65
2022-12-10T12:49:49.489Z,46.70
2022-12-10T12:50:56.770Z,50.65
2022-12-10T12:52:04.943Z,44.63
2022-12-10T12:53:12.708Z,42.63
2022-12-10T12:54:15.961Z,47.08
2022-12-10T12:55:20.494Z,45.35
2022-12-10T12:56:28.325Z,56.05
2022-12-10T12:57:35.516Z,56.85
2022-12-10T12:58:42.555Z,58.00
2022-12-10T12:59:53.850Z,63.63
2022-12-10T13:01:00.185Z,57.88
2022-12-10T13:02:10.958Z,61.03
2022-12-10T13:03:23.497Z,62.67
2022-12-10T13:04:26.873Z,64.60
2022-12-10T13:05:32.351Z,63.90
2022-12-10T13:06:37.323Z,67.65
2022-12-10T13:07:39.467Z,64.10
2022-12-10T13:08:48.437Z,61.88
2022-12-10T13:09:52.621Z,59.65
2022-12-10T13:10:57.649Z,57.25
2022-12-10T13:12:28.677Z,54.65
2022-12-10T13:13:33.736Z,60.40
2022-12-10T13:14:38.623Z,57.25
2022-12-10T13:15:41.048Z,55.03
2022-12-10T13:17:01.631Z,62.28
2022-12-10T13:18:21.888Z,56.83
2022-12-10T13:19:30.898Z,56.28
2022-12-10T13:20:35.911Z,64.22
2022-12-10T13:21:59.538Z,58.35
2022-12-10T13:23:03.989Z,56.13
2022-12-10T13:24:10.682Z,67.25
2022-12-10T13:25:18.677Z,76.97
2022-12-10T13:26:28.053Z,66.93
2022-12-10T13:27:32.794Z,62.90
2022-12-10T13:28:50.991Z,68.47
2022-12-10T13:29:59.751Z,58.60
2022-12-10T13:31:37.672Z,56.03
2022-12-10T13:32:48.986Z,51.83
2022-12-10T13:33:53.773Z,52.85
2022-12-10T13:35:31.193Z,54.67
2022-12-10T13:36:39.742Z,48.58
2022-12-10T13:38:05.629Z,54.55
2022-12-10T13:39:23.745Z,47.05
2022-12-10T13:40:29.689Z,52.45
2022-12-10T13:41:55.447Z,50.55
2022-12-10T13:43:43.413Z,44.90
2022-12-10T13:44:48.459Z,47.97
2022-12-10T13:46:24.299Z,49.38
2022-12-10T13:47:29.432Z,45.50
2022-12-10T13:48:38.990Z,45.83
2022-12-10T13:49:50.541Z,47.13
2022-12-10T13:51:01.425Z,45.25
2022-12-10T13:52:06.099Z,49.33
2022-12-10T13:53:17.438Z,46.13
2022-12-10T13:54:53.018Z,45.00
2022-12-10T13:56:02.814Z,41.88
2022-12-10T13:57:14.666Z,44.97
2022-12-10T13:58:33.198Z,46.72
2022-12-10T13:59:43.216Z,49.50
2022-12-10T14:00:52.156Z,47.42
2022-12-10T14:02:04.627Z,48.35
2022-12-10T14:03:44.773Z,53.53
2022-12-10T14:05:13.202Z,41.30
2022-12-10T14:06:18.275Z,49.03
2022-12-10T14:07:23.126Z,51.58
2022-12-10T14:08:28.221Z,51.80
2022-12-10T14:09:36.709Z,51.45
2022-12-10T14:10:42.695Z,60.80